Time;durP1;ratioP1;P1;durP2;ratioP2;P2;SDS_P1;SDS_P2;PMS_P1;PMS_P2;Temp;Humidity;BMP_temperature;BMP_pressure;BME280_temperature;BME280_humidity;BME280_pressure;Samples;Min_cycle;Max_cycle;Signal;HPM_P1;HPM_P2
2021/01/26 00:00:55;;;;;;;19.88;9.23;;;;;;;2.65;66.74;98538.56;10494868;28;20067;-49
2021/01/26 00:05:56;;;;;;;24.17;10.75;;;;;;;2.72;66.94;98542.41;10495709;28;20444;-49
2021/01/26 00:10:59;;;;;;;17.70;8.10;;;;;;;2.70;66.45;98575.41;10495135;28;20404;-50
2021/01/26 00:16:01;;;;;;;14.27;6.68;;;;;;;2.65;66.56;98531.66;10495117;28;20365;-49
2021/01/26 00:21:03;;;;;;;17.80;7.85;;;;;;;2.53;67.25;98558.47;10496065;28;20070;-50
2021/01/26 00:26:06;;;;;;;18.73;8.80;;;;;;;2.51;67.22;98539.56;10495127;28;20044;-50
2021/01/26 00:31:07;;;;;;;18.00;7.28;;;;;;;2.53;67.19;98527.34;10495056;28;20139;-49
2021/01/26 00:36:10;;;;;;;24.38;9.40;;;;;;;2.59;66.78;98516.53;10495073;28;20091;-50
2021/01/26 00:41:12;;;;;;;25.60;10.57;;;;;;;2.65;66.56;98507.44;10496587;28;20112;-51
2021/01/26 00:46:14;;;;;;;24.88;10.13;;;;;;;2.68;66.38;98505.47;10497364;28;20563;-48
2021/01/26 00:51:16;;;;;;;15.18;7.35;;;;;;;2.78;66.44;98520.38;10497373;28;20083;-49
2021/01/26 00:56:19;;;;;;;24.42;10.27;;;;;;;2.75;66.20;98500.66;10496941;28;20064;-50
2021/01/26 01:01:21;;;;;;;15.18;6.68;;;;;;;2.76;66.18;98507.50;10496968;28;20106;-49
2021/01/26 01:06:24;;;;;;;28.55;11.10;;;;;;;2.70;66.55;98498.41;10496084;28;20056;-49
2021/01/26 01:11:29;;;;;;;19.08;6.30;;;;;;;2.75;66.59;98501.50;10496799;28;20044;-50
2021/01/26 01:16:30;;;;;;;23.65;10.00;;;;;;;2.75;66.57;98500.66;10498802;28;20056;-60
2021/01/26 01:21:32;;;;;;;33.25;12.35;;;;;;;2.64;66.81;98488.47;10498959;28;20106;-50
2021/01/26 01:26:35;;;;;;;57.28;15.07;;;;;;;2.73;66.32;98486.97;10496836;28;20080;-50
2021/01/26 01:31:37;;;;;;;46.50;11.00;;;;;;;2.91;66.05;98493.41;10496570;28;20048;-49
2021/01/26 01:36:39;;;;;;;31.23;12.32;;;;;;;2.93;66.23;98475.16;10497049;28;20186;-50
2021/01/26 01:41:42;;;;;;;20.02;8.80;;;;;;;2.90;66.30;98509.13;10495658;28;20055;-49
2021/01/26 01:46:49;;;;;;;20.25;8.88;;;;;;;2.76;66.24;98487.56;10495370;28;20066;-49
2021/01/26 01:51:51;;;;;;;19.75;7.10;;;;;;;2.70;66.66;98484.59;10495149;28;20079;-50
2021/01/26 01:57:00;;;;;;;13.98;7.03;;;;;;;2.66;66.75;98478.81;10495674;28;20044;-49
2021/01/26 02:02:03;;;;;;;47.78;12.15;;;;;;;2.63;66.69;98468.66;10496969;28;20061;-49
2021/01/26 02:07:06;;;;;;;17.27;6.40;;;;;;;2.59;66.34;98464.63;10503196;28;20048;-50
2021/01/26 02:12:11;;;;;;;8.30;3.20;;;;;;;2.54;66.61;98479.69;10502938;28;20041;-49
2021/01/26 02:17:23;;;;;;;45.67;15.07;;;;;;;2.48;67.19;98444.63;10503391;28;20052;-50
2021/01/26 02:22:56;;;;;;;32.90;13.20;;;;;;;2.50;66.94;98428.97;10502510;28;20051;-50
2021/01/26 02:28:28;;;;;;;30.83;11.52;;;;;;;2.60;67.01;98450.72;10502087;28;20076;-49
2021/01/26 02:34:03;;;;;;;37.60;10.43;;;;;;;2.62;67.07;98422.91;10502406;28;20049;-51
2021/01/26 02:39:34;;;;;;;39.50;13.38;;;;;;;2.66;66.93;98415.72;10501894;28;20044;-49
2021/01/26 02:44:45;;;;;;;83.55;17.85;;;;;;;2.73;66.66;98404.75;10502732;28;20049;-49
2021/01/26 02:49:52;;;;;;;128.25;25.80;;;;;;;2.75;66.75;98415.84;10502472;28;20504;-51
2021/01/26 02:55:02;;;;;;;33.88;12.13;;;;;;;2.80;66.75;98405.13;10503072;28;20428;-53
2021/01/26 03:00:10;;;;;;;111.88;23.67;;;;;;;2.76;67.23;98393.31;10500719;28;20148;-57
2021/01/26 03:05:18;;;;;;;195.98;32.47;;;;;;;2.59;66.84;98384.19;10505367;28;20052;-49
2021/01/26 03:10:25;;;;;;;8.93;3.83;;;;;;;2.50;67.49;98418.59;10503406;28;20213;-49
2021/01/26 03:15:33;;;;;;;77.07;15.18;;;;;;;2.38;67.59;98399.56;10503372;28;20062;-49
2021/01/26 03:20:37;;;;;;;120.18;24.77;;;;;;;2.30;68.23;98394.09;10500488;28;20365;-50
2021/01/26 03:25:44;;;;;;;152.57;30.30;;;;;;;2.40;68.18;98397.69;10501044;28;20392;-49
2021/01/26 03:30:49;;;;;;;66.50;16.60;;;;;;;2.49;68.08;98385.78;10500186;28;20155;-48
2021/01/26 03:35:51;;;;;;;76.18;15.30;;;;;;;2.54;67.77;98379.34;10499746;28;20465;-49
2021/01/26 03:40:55;;;;;;;260.42;38.83;;;;;;;2.62;68.40;98362.41;10500721;28;20045;-48
2021/01/26 03:46:06;;;;;;;184.77;31.80;;;;;;;2.64;68.01;98374.28;10500154;28;20117;-50
2021/01/26 03:51:13;;;;;;;253.70;37.28;;;;;;;2.73;67.52;98362.41;10499780;28;20478;-50
2021/01/26 03:56:26;;;;;;;59.25;17.23;;;;;;;2.67;67.92;98363.69;10499422;28;20062;-48
2021/01/26 04:01:38;;;;;;;86.38;17.38;;;;;;;2.69;67.57;98356.63;10498517;28;20058;-49
2021/01/26 04:06:45;;;;;;;94.85;21.67;;;;;;;2.74;68.16;98358.88;10498981;28;20052;-49
2021/01/26 04:11:55;;;;;;;129.35;27.45;;;;;;;2.86;67.72;98351.94;10498730;28;20480;-49
2021/01/26 04:17:02;;;;;;;115.47;22.70;;;;;;;2.90;67.76;98353.38;10496854;28;20056;-50
2021/01/26 04:22:06;;;;;;;175.90;30.85;;;;;;;2.82;67.58;98337.53;10495953;28;20044;-49
2021/01/26 04:27:16;;;;;;;133.32;26.95;;;;;;;2.83;67.98;98336.59;10499692;28;20051;-51
2021/01/26 04:32:19;;;;;;;188.75;32.38;;;;;;;2.76;67.90;98336.22;10501129;28;20041;-49
2021/01/26 04:37:20;;;;;;;120.72;24.55;;;;;;;2.67;67.91;98326.53;10499067;28;20049;-49
2021/01/26 04:42:26;;;;;;;60.92;15.40;;;;;;;2.70;68.04;98334.09;10500061;28;20049;-49
2021/01/26 04:47:35;;;;;;;46.22;12.23;;;;;;;2.71;67.87;98333.16;10505015;28;20086;-52
2021/01/26 04:52:57;;;;;;;76.90;22.17;;;;;;;2.67;68.53;98316.16;10471582;28;20041;-50
2021/01/26 04:58:16;;;;;;;36.20;12.60;;;;;;;2.66;68.27;98317.94;10458694;28;20061;-49
2021/01/26 05:03:38;;;;;;;27.90;9.75;;;;;;;2.58;68.61;98307.28;10457535;28;20462;-50
2021/01/26 05:08:44;;;;;;;22.05;7.97;;;;;;;2.56;68.80;98300.59;10458657;28;20053;-49
2021/01/26 05:13:50;;;;;;;9.35;4.80;;;;;;;2.60;68.12;98309.78;10458716;28;20045;-50
2021/01/26 05:18:57;;;;;;;34.90;12.55;;;;;;;2.59;68.25;98301.19;10457996;28;20059;-49
2021/01/26 05:24:04;;;;;;;23.90;9.20;;;;;;;2.69;68.13;98299.53;10458065;28;20044;-51
2021/01/26 05:29:08;;;;;;;34.03;12.55;;;;;;;2.69;68.72;98294.34;10457536;28;20208;-50
2021/01/26 05:34:13;;;;;;;36.63;14.55;;;;;;;2.72;68.25;98301.91;10457807;28;20359;-49
2021/01/26 05:39:19;;;;;;;39.63;14.75;;;;;;;2.78;68.57;98300.63;10464837;28;20140;-49
2021/01/26 05:44:22;;;;;;;20.65;8.70;;;;;;;2.91;68.37;98295.31;10465948;28;20055;-48
2021/01/26 05:49:41;;;;;;;28.10;10.37;;;;;;;2.97;68.07;98276.69;10467000;28;20140;-49
2021/01/26 05:54:48;;;;;;;18.50;6.00;;;;;;;3.03;67.99;98317.75;10466485;28;20063;-51
2021/01/26 05:59:51;;;;;;;27.20;10.88;;;;;;;2.97;67.93;98279.28;10465705;28;20134;-49
2021/01/26 06:05:07;;;;;;;20.52;8.35;;;;;;;2.97;67.97;98271.50;10465543;28;20064;-50
2021/01/26 06:10:17;;;;;;;36.05;14.70;;;;;;;2.88;68.18;98292.97;10490297;28;20044;-49
2021/01/26 06:15:23;;;;;;;20.95;7.57;;;;;;;2.89;68.41;98268.66;10506985;28;20139;-50
2021/01/26 06:20:25;;;;;;;30.83;11.07;;;;;;;2.88;68.11;98261.81;10505695;28;20384;-49
2021/01/26 06:25:29;;;;;;;13.65;6.38;;;;;;;2.97;67.95;98272.31;10506267;28;20599;-50
2021/01/26 06:30:43;;;;;;;37.35;16.48;;;;;;;3.06;67.86;98255.22;10506857;28;20048;-49
2021/01/26 06:35:59;;;;;;;36.83;16.80;;;;;;;3.25;67.72;98253.78;10506422;28;20124;-51
2021/01/26 06:41:15;;;;;;;36.88;18.40;;;;;;;3.40;67.21;98270.75;10504489;28;20105;-51
2021/01/26 06:46:27;;;;;;;35.78;17.00;;;;;;;3.48;67.04;98250.19;10505097;28;20044;-49
2021/01/26 06:52:11;;;;;;;28.80;14.75;;;;;;;3.54;67.38;98244.53;10504597;28;20193;-50
2021/01/26 06:58:03;;;;;;;26.23;13.32;;;;;;;3.52;66.89;98238.63;10504383;28;20059;-50
2021/01/26 07:03:40;;;;;;;34.15;14.32;;;;;;;3.60;66.69;98238.84;10371840;28;20216;-50
2021/01/26 07:09:09;;;;;;;24.85;11.80;;;;;;;3.63;65.93;98225.59;10496665;28;20459;-51
2021/01/26 07:14:24;;;;;;;19.63;9.57;;;;;;;3.54;65.57;98223.75;10503931;28;20045;-49
2021/01/26 07:19:56;;;;;;;13.57;7.20;;;;;;;3.37;65.20;98203.47;10503201;28;20053;-49
2021/01/26 07:25:12;;;;;;;28.52;12.35;;;;;;;3.38;65.37;98199.91;10502708;28;20076;-49
2021/01/26 07:30:19;;;;;;;18.88;7.35;;;;;;;3.43;64.47;98200.38;10503435;28;20481;-50
2021/01/26 07:35:30;;;;;;;11.93;6.57;;;;;;;3.47;64.05;98194.78;10504030;28;20052;-50
2021/01/26 07:40:37;;;;;;;12.00;5.20;;;;;;;3.54;64.11;98202.09;10503175;28;20045;-51
2021/01/26 07:45:48;;;;;;;18.98;9.18;;;;;;;3.50;63.15;98193.72;10503212;28;20060;-49
2021/01/26 07:50:54;;;;;;;10.48;5.57;;;;;;;3.58;63.26;98201.75;10502147;28;20044;-54
2021/01/26 07:56:03;;;;;;;13.13;5.95;;;;;;;3.62;63.27;98177.16;10503045;28;20097;-51
2021/01/26 08:01:05;;;;;;;20.02;9.65;;;;;;;3.69;62.56;98180.94;10500441;28;20052;-50
2021/01/26 08:06:48;;;;;;;20.98;10.02;;;;;;;3.87;62.83;98164.75;10502925;28;20132;-50
2021/01/26 08:11:55;;;;;;;12.85;6.20;;;;;;;3.97;62.51;98204.63;10502182;28;20489;-49
2021/01/26 08:16:59;;;;;;;14.88;6.78;;;;;;;3.96;61.86;98166.59;10501431;28;20048;-49
2021/01/26 08:22:17;;;;;;;23.83;9.57;;;;;;;4.00;61.42;98151.56;10501454;28;20056;-48
2021/01/26 08:27:32;;;;;;;14.25;4.40;;;;;;;3.88;61.12;98124.84;10501040;28;20393;-50
2021/01/26 08:33:10;;;;;;;13.25;4.47;;;;;;;3.92;60.64;98144.41;10500946;28;20059;-50
2021/01/26 08:38:47;;;;;;;24.63;9.23;;;;;;;4.06;61.09;98102.47;10501039;28;20055;-50
2021/01/26 08:43:49;;;;;;;19.73;7.85;;;;;;;4.11;60.15;98102.91;10498586;28;20056;-49
2021/01/26 08:48:57;;;;;;;14.57;7.30;;;;;;;4.25;60.24;98119.97;10500662;28;20048;-50
2021/01/26 08:54:01;;;;;;;20.38;8.40;;;;;;;4.29;60.59;98130.94;10500697;28;20143;-49
2021/01/26 08:59:07;;;;;;;20.38;9.77;;;;;;;4.45;60.07;98130.47;10500168;28;20449;-49
2021/01/26 09:04:44;;;;;;;21.23;9.13;;;;;;;4.66;59.56;98139.03;10506525;28;20040;-51
2021/01/26 09:09:52;;;;;;;20.20;8.20;;;;;;;4.81;59.87;98126.50;10500519;28;20044;-49
2021/01/26 09:15:00;;;;;;;16.65;6.93;;;;;;;4.94;59.56;98119.25;10500022;28;20045;-50
2021/01/26 09:20:09;;;;;;;21.27;8.40;;;;;;;4.83;58.79;98108.94;10500063;28;20044;-49
2021/01/26 09:25:16;;;;;;;20.23;9.23;;;;;;;4.79;58.90;98102.34;10499761;28;20481;-52
2021/01/26 09:30:20;;;;;;;16.58;8.43;;;;;;;4.75;58.33;98116.59;10499914;28;20133;-50
2021/01/26 09:35:26;;;;;;;14.70;8.30;;;;;;;4.57;59.07;98092.97;10500002;28;20052;-50
2021/01/26 09:40:29;;;;;;;18.55;8.45;;;;;;;4.52;59.23;98102.94;10498742;28;20049;-49
2021/01/26 09:45:31;;;;;;;14.40;7.00;;;;;;;4.49;59.40;98088.41;10498881;28;20056;-49
2021/01/26 09:50:34;;;;;;;18.13;7.30;;;;;;;4.55;59.29;98090.50;10498979;28;20294;-49
2021/01/26 09:55:37;;;;;;;17.13;9.00;;;;;;;4.58;59.43;98090.22;10499339;28;20052;-50
2021/01/26 10:00:40;;;;;;;20.47;8.13;;;;;;;4.53;59.69;98087.22;10498575;28;20060;-51
2021/01/26 10:05:41;;;;;;;17.90;9.57;;;;;;;4.55;60.22;98061.06;10498715;28;20044;-50
2021/01/26 10:10:44;;;;;;;9.80;5.00;;;;;;;4.70;59.59;98058.91;10498772;28;20582;-49
2021/01/26 10:15:46;;;;;;;16.85;7.85;;;;;;;4.67;60.18;98046.97;10498770;28;20055;-50
2021/01/26 10:20:55;;;;;;;17.83;8.77;;;;;;;4.51;59.56;98021.47;10500745;28;20135;-49
2021/01/26 10:26:11;;;;;;;18.65;8.52;;;;;;;4.38;59.92;98013.09;10505068;28;20044;-53
2021/01/26 10:31:18;;;;;;;18.15;7.78;;;;;;;4.04;61.27;98002.97;10505952;28;20060;-49
2021/01/26 10:36:30;;;;;;;15.07;6.00;;;;;;;3.98;61.55;98013.91;10505261;28;20135;-50
2021/01/26 10:41:36;;;;;;;18.73;6.68;;;;;;;3.99;61.92;97994.75;10504854;28;20095;-50
2021/01/26 10:46:40;;;;;;;19.08;9.38;;;;;;;3.93;62.25;97977.88;10504819;28;20090;-49
2021/01/26 10:51:43;;;;;;;15.45;7.47;;;;;;;3.91;62.63;97981.59;10505425;28;20048;-49
2021/01/26 10:56:46;;;;;;;19.42;7.55;;;;;;;3.83;63.44;97971.84;10504899;28;20059;-49
2021/01/26 11:01:48;;;;;;;25.05;7.85;;;;;;;3.83;63.65;97958.03;10506939;28;20404;-49
2021/01/26 11:06:50;;;;;;;11.85;4.88;;;;;;;3.88;63.90;97955.88;10506221;28;20487;-49
2021/01/26 11:11:54;;;;;;;12.88;5.38;;;;;;;3.88;64.20;97950.66;10503878;28;20076;-48
2021/01/26 11:16:56;;;;;;;24.10;9.45;;;;;;;3.85;64.32;97930.94;10504360;28;20058;-49
2021/01/26 11:21:57;;;;;;;21.13;7.88;;;;;;;3.85;64.44;97920.56;10503679;28;20063;-50
2021/01/26 11:27:00;;;;;;;21.85;7.25;;;;;;;3.81;64.80;97933.94;10504112;28;20067;-49
2021/01/26 11:32:02;;;;;;;19.67;9.63;;;;;;;3.87;64.50;97959.41;10503818;28;20545;-49
2021/01/26 11:37:04;;;;;;;15.73;7.20;;;;;;;3.91;65.05;97945.19;10503149;28;20392;-49
2021/01/26 11:42:06;;;;;;;8.63;3.20;;;;;;;3.90;65.28;97946.13;10502772;28;20390;-51
2021/01/26 11:47:08;;;;;;;19.80;9.23;;;;;;;4.02;65.26;97932.09;10502519;28;20546;-50
2021/01/26 11:52:10;;;;;;;24.15;9.65;;;;;;;4.14;64.74;97931.03;10502239;28;20049;-50
2021/01/26 11:57:12;;;;;;;17.02;8.27;;;;;;;4.17;65.09;97934.31;10502373;28;20048;-50
2021/01/26 12:02:14;;;;;;;19.67;9.15;;;;;;;4.19;64.74;97932.38;10500975;28;20166;-50
2021/01/26 12:07:16;;;;;;;20.73;9.40;;;;;;;4.25;64.60;97934.44;10501951;28;20056;-50
2021/01/26 12:12:18;;;;;;;16.27;7.32;;;;;;;4.20;64.82;97939.25;10502268;28;20131;-50
2021/01/26 12:17:20;;;;;;;16.13;8.10;;;;;;;4.08;64.74;97920.34;10501459;28;20064;-50
2021/01/26 12:22:22;;;;;;;16.08;7.45;;;;;;;4.07;65.10;97940.31;10500724;28;20076;-49
2021/01/26 12:27:24;;;;;;;20.35;9.80;;;;;;;4.07;64.63;97909.13;10501302;28;20135;-50
2021/01/26 12:32:26;;;;;;;17.27;9.73;;;;;;;4.12;65.07;97927.72;10500417;28;20055;-50
2021/01/26 12:37:28;;;;;;;13.70;7.22;;;;;;;4.04;65.28;97911.97;10500646;28;20044;-50
2021/01/26 12:42:31;;;;;;;8.68;4.45;;;;;;;3.89;65.23;97921.09;10500464;28;20055;-49
2021/01/26 12:47:32;;;;;;;15.90;8.60;;;;;;;3.87;66.02;97917.81;10499805;28;20053;-50
2021/01/26 12:52:34;;;;;;;22.85;11.30;;;;;;;3.96;65.97;97891.00;10500629;28;20041;-50
2021/01/26 12:57:37;;;;;;;21.55;10.23;;;;;;;4.03;65.49;97873.09;10499535;28;20127;-51
2021/01/26 13:02:39;;;;;;;18.33;8.73;;;;;;;4.07;65.25;97892.69;10503169;28;20131;-51
2021/01/26 13:07:40;;;;;;;18.55;10.10;;;;;;;4.10;65.07;97901.03;10499753;28;20383;-50
2021/01/26 13:12:43;;;;;;;17.42;9.30;;;;;;;4.05;65.01;97858.19;10500420;28;20044;-49
2021/01/26 13:17:45;;;;;;;19.63;8.87;;;;;;;4.04;65.32;97851.34;10504284;28;20139;-55
2021/01/26 13:22:48;;;;;;;16.80;7.68;;;;;;;4.07;65.20;97841.50;10500981;28;20131;-49
2021/01/26 13:27:52;;;;;;;14.80;7.45;;;;;;;4.09;64.99;97836.97;10498584;28;20052;-51
2021/01/26 13:32:53;;;;;;;16.17;7.53;;;;;;;4.15;65.08;97885.84;10499681;28;20376;-49
2021/01/26 13:37:55;;;;;;;18.77;8.90;;;;;;;4.14;65.19;97847.81;10500554;28;20048;-50
2021/01/26 13:42:58;;;;;;;15.40;9.07;;;;;;;4.19;64.94;97841.34;10498978;28;20504;-53
2021/01/26 13:48:00;;;;;;;11.23;5.27;;;;;;;4.01;65.02;97836.84;10499474;28;20059;-49
2021/01/26 13:53:02;;;;;;;15.60;9.02;;;;;;;3.78;65.91;97843.22;10499634;28;20044;-49
2021/01/26 13:58:05;;;;;;;13.95;6.93;;;;;;;3.73;66.35;97867.03;10500122;28;20079;-49
2021/01/26 14:03:06;;;;;;;12.35;6.68;;;;;;;3.66;67.12;97848.56;10507135;28;20049;-49
2021/01/26 14:08:10;;;;;;;15.80;8.57;;;;;;;3.58;67.53;97865.75;10507476;28;20109;-49
2021/01/26 14:13:13;;;;;;;;;;;;;;;3.52;67.68;97856.69;10507309;28;20463;-49
2021/01/26 14:18:14;;;;;;;13.60;8.00;;;;;;;3.42;68.14;97850.66;10505914;28;19924;-50
2021/01/26 14:23:16;;;;;;;15.93;7.97;;;;;;;3.38;68.46;97847.47;10505562;28;20469;-51
2021/01/26 14:28:19;;;;;;;19.25;7.13;;;;;;;3.51;68.01;97873.25;10505182;28;20059;-48
2021/01/26 14:33:21;;;;;;;16.33;9.45;;;;;;;3.58;68.43;97860.56;10505448;28;20106;-53
2021/01/26 14:38:23;;;;;;;18.13;9.80;;;;;;;3.60;68.27;97874.22;10504197;28;20066;-50
2021/01/26 14:43:26;;;;;;;15.77;7.55;;;;;;;3.58;68.53;97865.75;10507521;28;20117;-51
2021/01/26 14:48:28;;;;;;;18.73;9.18;;;;;;;3.64;67.79;97871.25;10505154;28;20477;-50
2021/01/26 14:53:29;;;;;;;20.58;10.55;;;;;;;3.76;67.47;97884.13;10504784;28;20052;-50
2021/01/26 14:58:32;;;;;;;17.38;8.82;;;;;;;3.76;67.94;97874.56;10503882;28;20056;-49
2021/01/26 15:03:34;;;;;;;14.68;7.47;;;;;;;3.83;67.40;97874.84;10504350;28;20045;-50
2021/01/26 15:08:35;;;;;;;16.90;9.60;;;;;;;3.89;67.84;97875.13;10502916;28;20117;-51
2021/01/26 15:13:38;;;;;;;15.60;8.27;;;;;;;3.90;67.34;97876.75;10504227;28;20135;-51
2021/01/26 15:18:41;;;;;;;14.82;6.57;;;;;;;3.93;67.59;97871.31;10503572;28;20067;-51
2021/01/26 15:23:43;;;;;;;16.10;7.70;;;;;;;3.96;67.41;97880.63;10504888;28;20052;-55
2021/01/26 15:28:46;;;;;;;13.00;6.20;;;;;;;3.93;67.26;97876.50;10499912;28;20078;-49
2021/01/26 15:33:48;;;;;;;8.77;4.63;;;;;;;3.95;67.35;97881.59;10502118;28;20448;-51
2021/01/26 15:38:51;;;;;;;9.73;4.65;;;;;;;3.88;67.09;97883.91;10502419;28;20048;-50
2021/01/26 15:43:54;;;;;;;10.27;5.82;;;;;;;3.87;67.24;97876.22;10475607;28;20136;-48
2021/01/26 15:48:56;;;;;;;10.73;5.60;;;;;;;3.89;67.66;97884.72;10501950;28;20048;-50
2021/01/26 15:53:58;;;;;;;8.70;4.45;;;;;;;3.96;67.41;97883.22;10492374;28;20053;-49
2021/01/26 15:59:01;;;;;;;6.97;3.25;;;;;;;3.98;66.98;97894.31;10460026;28;20060;-50
2021/01/26 16:04:03;;;;;;;8.50;4.72;;;;;;;3.92;66.14;97900.84;10496376;28;20190;-50
2021/01/26 16:09:06;;;;;;;9.52;5.25;;;;;;;3.92;66.47;97897.44;10500845;28;20378;-49
2021/01/26 16:14:09;;;;;;;7.63;4.20;;;;;;;3.86;65.65;97906.59;10500634;28;20477;-51
2021/01/26 16:19:10;;;;;;;7.15;3.42;;;;;;;3.87;65.65;97915.22;10499193;28;20056;-49
2021/01/26 16:24:13;;;;;;;7.43;3.85;;;;;;;3.83;65.13;97909.44;10498010;28;20067;-51
2021/01/26 16:29:16;;;;;;;5.50;2.53;;;;;;;3.83;64.39;97924.22;10499308;28;20060;-49
2021/01/26 16:34:18;;;;;;;7.17;3.40;;;;;;;3.82;64.76;97926.00;10498736;28;20044;-51
2021/01/26 16:39:20;;;;;;;7.50;3.88;;;;;;;3.89;64.05;97918.50;10497254;28;20076;-51
2021/01/26 16:44:22;;;;;;;8.65;3.88;;;;;;;3.97;63.48;97918.66;10496901;28;20048;-53
2021/01/26 16:49:24;;;;;;;9.85;4.75;;;;;;;4.02;63.25;97920.88;10494317;28;20099;-50
2021/01/26 16:54:26;;;;;;;9.18;3.78;;;;;;;4.06;62.93;97917.84;10495155;28;20381;-50
2021/01/26 16:59:28;;;;;;;8.65;4.28;;;;;;;4.14;63.10;97912.81;10493718;28;20056;-50
2021/01/26 17:04:30;;;;;;;11.70;5.10;;;;;;;4.26;62.74;97917.91;10500522;28;20044;-51
2021/01/26 17:09:32;;;;;;;8.60;4.82;;;;;;;4.38;62.77;97922.03;10496261;28;20472;-49
2021/01/26 17:14:34;;;;;;;9.55;4.07;;;;;;;4.32;62.37;97926.00;10495818;28;20048;-49
2021/01/26 17:19:38;;;;;;;8.23;4.07;;;;;;;4.19;62.75;97940.19;10493823;28;20131;-50
2021/01/26 17:24:39;;;;;;;;;;;;;;;4.09;61.89;97935.78;10495550;28;20047;-49
2021/01/26 17:29:42;;;;;;;6.07;3.08;;;;;;;4.03;61.67;97933.72;10494469;28;20005;-55
2021/01/26 17:34:44;;;;;;;9.10;4.72;;;;;;;4.01;61.74;97920.03;10500775;28;20534;-49
2021/01/26 17:39:46;;;;;;;7.35;3.25;;;;;;;4.07;61.48;97916.91;10502746;28;20129;-50
2021/01/26 17:44:48;;;;;;;7.97;3.75;;;;;;;4.09;61.09;97917.59;10503207;28;20480;-52
2021/01/26 17:49:50;;;;;;;8.98;3.80;;;;;;;4.18;60.69;97930.75;10502474;28;20148;-50
2021/01/26 17:54:52;;;;;;;9.07;4.90;;;;;;;4.20;60.41;97923.66;10501243;28;20047;-50
2021/01/26 17:59:54;;;;;;;12.95;5.40;;;;;;;4.34;60.21;97936.25;10501758;28;20060;-49
2021/01/26 18:04:56;;;;;;;13.43;6.72;;;;;;;4.49;60.49;97929.69;10502117;28;20059;-51
2021/01/26 18:09:58;;;;;;;9.98;5.43;;;;;;;4.64;59.91;97926.69;10502710;28;20116;-52
2021/01/26 18:15:00;;;;;;;10.30;5.25;;;;;;;4.64;59.58;97917.09;10503263;28;20098;-50
2021/01/26 18:20:03;;;;;;;11.57;5.15;;;;;;;4.66;60.26;97911.78;10499805;28;20056;-50
2021/01/26 18:25:05;;;;;;;11.00;5.47;;;;;;;4.65;59.69;97928.34;10501118;28;20149;-52
2021/01/26 18:30:11;;;;;;;10.40;4.75;;;;;;;4.59;59.99;97922.75;10503825;28;20488;-50
2021/01/26 18:35:16;;;;;;;10.73;3.80;;;;;;;4.52;59.33;97929.41;10503006;28;20040;-49
2021/01/26 18:40:19;;;;;;;10.07;5.25;;;;;;;4.47;59.28;97925.59;10502787;28;20041;-50
2021/01/26 18:45:24;;;;;;;11.07;5.28;;;;;;;4.45;58.74;97914.50;10502589;28;20072;-50
2021/01/26 18:50:26;;;;;;;10.32;4.78;;;;;;;4.50;58.93;97917.53;10501871;28;20396;-50
2021/01/26 18:55:29;;;;;;;11.00;5.72;;;;;;;4.65;59.09;97917.91;10503254;28;20041;-52
2021/01/26 19:00:32;;;;;;;12.57;6.55;;;;;;;4.73;58.40;97911.06;10502720;28;20060;-51
2021/01/26 19:05:34;;;;;;;13.10;6.03;;;;;;;4.76;58.30;97904.78;10501867;28;20055;-51
2021/01/26 19:10:36;;;;;;;11.77;6.13;;;;;;;4.79;58.10;97904.50;10503182;28;20060;-52
2021/01/26 19:15:39;;;;;;;13.95;7.20;;;;;;;4.84;57.71;97904.91;10502589;28;20135;-50
2021/01/26 19:20:40;;;;;;;15.38;7.28;;;;;;;4.85;58.23;97906.56;10501101;28;20109;-52
2021/01/26 19:25:42;;;;;;;12.95;6.10;;;;;;;4.89;57.59;97902.69;10502052;28;20185;-50
2021/01/26 19:30:44;;;;;;;11.88;5.55;;;;;;;4.82;57.56;97902.44;10506261;28;20056;-51
2021/01/26 19:35:48;;;;;;;9.55;4.57;;;;;;;4.75;57.07;97903.97;10501869;28;20105;-51
2021/01/26 19:40:50;;;;;;;12.27;5.75;;;;;;;4.70;57.60;97895.72;10501729;28;20060;-49
2021/01/26 19:45:52;;;;;;;13.02;4.32;;;;;;;4.76;57.26;97895.19;10501473;28;20477;-51
2021/01/26 19:50:54;;;;;;;13.88;6.30;;;;;;;4.75;57.86;97895.34;10500251;28;20143;-51
2021/01/26 19:55:56;;;;;;;12.30;6.25;;;;;;;4.82;57.42;97902.44;10500726;28;20056;-51
2021/01/26 20:00:58;;;;;;;13.13;6.55;;;;;;;4.88;56.96;97898.47;10500137;28;20060;-50
2021/01/26 20:06:00;;;;;;;15.57;7.43;;;;;;;4.87;56.92;97904.66;10500271;28;20052;-51
2021/01/26 20:11:02;;;;;;;13.52;6.25;;;;;;;4.90;56.78;97896.56;10497812;28;20113;-50
2021/01/26 20:16:05;;;;;;;13.80;7.03;;;;;;;4.87;57.03;97891.63;10500015;28;20053;-51
2021/01/26 20:21:08;;;;;;;14.50;6.70;;;;;;;4.96;57.29;97895.19;10500954;28;20058;-51
2021/01/26 20:26:10;;;;;;;13.20;6.60;;;;;;;5.08;56.47;97894.88;10503547;28;20481;-49
2021/01/26 20:31:13;;;;;;;14.13;6.68;;;;;;;4.98;56.71;97894.06;10502966;28;20058;-50
2021/01/26 20:36:16;;;;;;;10.93;5.70;;;;;;;4.96;56.45;97887.38;10501728;28;20508;-55
2021/01/26 20:41:18;;;;;;;11.93;6.10;;;;;;;4.89;56.54;97879.28;10501217;28;20481;-51
2021/01/26 20:46:22;;;;;;;14.07;6.75;;;;;;;4.90;56.37;97880.94;10471307;28;20044;-49
2021/01/26 20:51:23;;;;;;;11.25;6.30;;;;;;;4.83;56.39;97890.25;10458609;28;20098;-49
2021/01/26 20:56:26;;;;;;;10.52;5.07;;;;;;;4.84;56.89;97858.88;10459392;28;20045;-50
2021/01/26 21:01:29;;;;;;;11.90;5.75;;;;;;;4.82;56.43;97855.56;10459858;28;20363;-52
2021/01/26 21:06:31;;;;;;;10.87;5.13;;;;;;;4.88;56.39;97869.81;10460648;28;20355;-48
2021/01/26 21:11:32;;;;;;;12.10;5.43;;;;;;;4.76;56.08;97873.53;10458452;28;20048;-50
2021/01/26 21:16:35;;;;;;;10.30;5.45;;;;;;;4.75;56.33;97866.69;10457661;28;20065;-54
2021/01/26 21:21:37;;;;;;;10.02;5.22;;;;;;;4.81;56.21;97861.75;10460369;28;20076;-56
2021/01/26 21:26:39;;;;;;;12.82;6.28;;;;;;;4.91;56.16;97861.72;10458835;28;20355;-50
2021/01/26 21:31:41;;;;;;;9.52;5.05;;;;;;;4.95;56.37;97852.66;10457899;28;20045;-50
2021/01/26 21:36:43;;;;;;;13.85;7.03;;;;;;;4.91;56.51;97848.72;10458121;28;20084;-50
2021/01/26 21:41:45;;;;;;;12.90;6.25;;;;;;;4.93;56.06;97846.81;10457413;28;20064;-51
2021/01/26 21:46:47;;;;;;;11.88;4.75;;;;;;;4.86;55.98;97840.50;10457527;28;20366;-51
2021/01/26 21:51:49;;;;;;;10.60;5.78;;;;;;;4.84;56.45;97838.03;10457407;28;20041;-50
2021/01/26 21:56:51;;;;;;;12.00;4.95;;;;;;;4.89;56.53;97842.81;10457534;28;20139;-50
2021/01/26 22:01:53;;;;;;;9.88;4.63;;;;;;;4.96;56.90;97838.72;10456471;28;20057;-51
2021/01/26 22:06:55;;;;;;;13.93;7.00;;;;;;;4.96;56.43;97825.69;10457347;28;20082;-50
2021/01/26 22:11:57;;;;;;;14.60;7.13;;;;;;;4.95;56.41;97821.44;10456684;28;20057;-51
2021/01/26 22:17:00;;;;;;;13.18;6.65;;;;;;;4.96;56.84;97807.47;10455621;28;20045;-49
2021/01/26 22:22:02;;;;;;;10.50;5.30;;;;;;;4.95;56.97;97812.78;10462857;28;20045;-49
2021/01/26 22:27:04;;;;;;;15.27;7.25;;;;;;;4.97;56.49;97793.47;10464568;28;20103;-51
2021/01/26 22:32:06;;;;;;;12.82;6.68;;;;;;;4.96;56.50;97794.44;10463878;28;20048;-50
2021/01/26 22:37:08;;;;;;;15.25;8.13;;;;;;;4.93;56.46;97783.50;10465995;28;20084;-51
2021/01/26 22:42:10;;;;;;;13.75;8.02;;;;;;;4.89;56.83;97776.91;10464175;28;20134;-49
2021/01/26 22:47:13;;;;;;;13.73;8.20;;;;;;;4.85;57.17;97765.97;10463178;28;20053;-51
2021/01/26 22:52:15;;;;;;;11.70;5.93;;;;;;;4.82;57.20;97755.84;10463570;28;20048;-50
2021/01/26 22:57:16;;;;;;;17.63;8.60;;;;;;;4.72;57.13;97755.06;10462848;28;20059;-50
2021/01/26 23:02:19;;;;;;;16.95;9.65;;;;;;;4.65;57.90;97751.34;10462009;28;20068;-50
2021/01/26 23:07:22;;;;;;;12.95;6.03;;;;;;;4.64;58.01;97752.31;10463127;28;20140;-50
2021/01/26 23:12:24;;;;;;;17.48;8.93;;;;;;;4.65;57.59;97743.53;10481688;28;20507;-52
2021/01/26 23:17:26;;;;;;;14.10;7.93;;;;;;;4.64;57.51;97731.50;10462549;28;20507;-50
2021/01/26 23:22:28;;;;;;;16.70;8.13;;;;;;;4.65;58.01;97740.94;10463761;28;20059;-48
2021/01/26 23:27:30;;;;;;;12.50;6.78;;;;;;;4.68;58.22;97745.88;10462375;28;20135;-51
2021/01/26 23:32:34;;;;;;;16.58;9.05;;;;;;;4.67;57.85;97731.22;10461856;28;20132;-51
2021/01/26 23:37:37;;;;;;;13.68;7.80;;;;;;;4.74;58.23;97742.69;10462871;28;20045;-51